sensor_id;sensor_type;location;lat;lon;timestamp;P1;durP1;ratioP1;P2;durP2;ratioP2
62863;SDS011;48954;59.950;11.014;2022-07-10T00:00:40;0.30;;;0.20;;
62863;SDS011;48954;59.950;11.014;2022-07-10T00:03:06;0.20;;;0.10;;
62863;SDS011;48954;59.950;11.014;2022-07-10T00:05:32;0.20;;;0.10;;
62863;SDS011;48954;59.950;11.014;2022-07-10T00:07:58;0.50;;;0.20;;
62863;SDS011;48954;59.950;11.014;2022-07-10T00:10:23;1.00;;;0.20;;
62863;SDS011;48954;59.950;11.014;2022-07-10T00:12:50;0.70;;;0.20;;
62863;SDS011;48954;59.950;11.014;2022-07-10T00:15:17;0.30;;;0.20;;
62863;SDS011;48954;59.950;11.014;2022-07-10T00:17:43;0.40;;;0.20;;
62863;SDS011;48954;59.950;11.014;2022-07-10T00:20:09;0.20;;;0.20;;
62863;SDS011;48954;59.950;11.014;2022-07-10T00:22:39;0.30;;;0.20;;
62863;SDS011;48954;59.950;11.014;2022-07-10T00:25:06;0.30;;;0.20;;
62863;SDS011;48954;59.950;11.014;2022-07-10T00:27:34;0.40;;;0.20;;
62863;SDS011;48954;59.950;11.014;2022-07-10T00:30:00;0.30;;;0.10;;
62863;SDS011;48954;59.950;11.014;2022-07-10T00:32:26;0.10;;;0.10;;
62863;SDS011;48954;59.950;11.014;2022-07-10T00:34:52;0.30;;;0.10;;
62863;SDS011;48954;59.950;11.014;2022-07-10T00:37:18;0.40;;;0.20;;
62863;SDS011;48954;59.950;11.014;2022-07-10T00:39:43;1.20;;;0.20;;
62863;SDS011;48954;59.950;11.014;2022-07-10T00:42:09;1.40;;;0.10;;
62863;SDS011;48954;59.950;11.014;2022-07-10T00:44:37;0.20;;;0.20;;
62863;SDS011;48954;59.950;11.014;2022-07-10T00:47:04;0.30;;;0.20;;
62863;SDS011;48954;59.950;11.014;2022-07-10T00:49:31;0.10;;;0.10;;
62863;SDS011;48954;59.950;11.014;2022-07-10T00:51:58;0.30;;;0.10;;
62863;SDS011;48954;59.950;11.014;2022-07-10T00:54:27;0.10;;;0.10;;
62863;SDS011;48954;59.950;11.014;2022-07-10T00:56:54;0.50;;;0.20;;
62863;SDS011;48954;59.950;11.014;2022-07-10T00:59:20;0.40;;;0.20;;
62863;SDS011;48954;59.950;11.014;2022-07-10T01:01:47;0.20;;;0.20;;
62863;SDS011;48954;59.950;11.014;2022-07-10T01:04:14;0.30;;;0.10;;
62863;SDS011;48954;59.950;11.014;2022-07-10T01:06:40;1.00;;;0.20;;
62863;SDS011;48954;59.950;11.014;2022-07-10T01:09:07;0.10;;;0.10;;
62863;SDS011;48954;59.950;11.014;2022-07-10T01:11:33;0.30;;;0.20;;
62863;SDS011;48954;59.950;11.014;2022-07-10T01:13:59;0.30;;;0.30;;
62863;SDS011;48954;59.950;11.014;2022-07-10T01:16:26;0.30;;;0.20;;
62863;SDS011;48954;59.950;11.014;2022-07-10T01:18:51;1.00;;;0.20;;
62863;SDS011;48954;59.950;11.014;2022-07-10T01:21:30;0.50;;;0.30;;
62863;SDS011;48954;59.950;11.014;2022-07-10T01:23:57;0.70;;;0.30;;
62863;SDS011;48954;59.950;11.014;2022-07-10T01:26:24;0.90;;;0.30;;
62863;SDS011;48954;59.950;11.014;2022-07-10T01:28:51;0.40;;;0.20;;
62863;SDS011;48954;59.950;11.014;2022-07-10T01:31:18;0.90;;;0.20;;
62863;SDS011;48954;59.950;11.014;2022-07-10T01:33:50;0.30;;;0.20;;
62863;SDS011;48954;59.950;11.014;2022-07-10T01:36:16;0.60;;;0.20;;
62863;SDS011;48954;59.950;11.014;2022-07-10T01:38:42;0.20;;;0.20;;
62863;SDS011;48954;59.950;11.014;2022-07-10T01:41:09;0.10;;;0.10;;
62863;SDS011;48954;59.950;11.014;2022-07-10T01:43:35;0.20;;;0.20;;
62863;SDS011;48954;59.950;11.014;2022-07-10T01:46:01;0.30;;;0.20;;
62863;SDS011;48954;59.950;11.014;2022-07-10T01:48:28;0.70;;;0.30;;
62863;SDS011;48954;59.950;11.014;2022-07-10T01:50:54;0.30;;;0.20;;
62863;SDS011;48954;59.950;11.014;2022-07-10T01:53:20;0.20;;;0.20;;
62863;SDS011;48954;59.950;11.014;2022-07-10T01:55:46;0.20;;;0.20;;
62863;SDS011;48954;59.950;11.014;2022-07-10T01:58:11;1.90;;;0.30;;
62863;SDS011;48954;59.950;11.014;2022-07-10T02:00:37;0.40;;;0.20;;
62863;SDS011;48954;59.950;11.014;2022-07-10T02:03:03;0.20;;;0.20;;
62863;SDS011;48954;59.950;11.014;2022-07-10T02:05:28;0.40;;;0.40;;
62863;SDS011;48954;59.950;11.014;2022-07-10T02:07:54;0.70;;;0.10;;
62863;SDS011;48954;59.950;11.014;2022-07-10T02:10:19;0.30;;;0.20;;
62863;SDS011;48954;59.950;11.014;2022-07-10T02:12:45;1.50;;;0.10;;
62863;SDS011;48954;59.950;11.014;2022-07-10T02:15:11;1.30;;;0.30;;
62863;SDS011;48954;59.950;11.014;2022-07-10T02:17:36;0.20;;;0.20;;
62863;SDS011;48954;59.950;11.014;2022-07-10T02:20:02;0.90;;;0.30;;
62863;SDS011;48954;59.950;11.014;2022-07-10T02:22:28;0.20;;;0.10;;
62863;SDS011;48954;59.950;11.014;2022-07-10T02:24:54;0.20;;;0.10;;
62863;SDS011;48954;59.950;11.014;2022-07-10T02:27:19;0.50;;;0.20;;
62863;SDS011;48954;59.950;11.014;2022-07-10T02:29:45;0.50;;;0.30;;
62863;SDS011;48954;59.950;11.014;2022-07-10T02:32:10;0.20;;;0.20;;
62863;SDS011;48954;59.950;11.014;2022-07-10T02:34:36;1.20;;;0.20;;
62863;SDS011;48954;59.950;11.014;2022-07-10T02:37:02;0.50;;;0.30;;
62863;SDS011;48954;59.950;11.014;2022-07-10T02:39:27;0.60;;;0.30;;
62863;SDS011;48954;59.950;11.014;2022-07-10T02:41:53;0.70;;;0.30;;
62863;SDS011;48954;59.950;11.014;2022-07-10T02:44:19;1.50;;;0.30;;
62863;SDS011;48954;59.950;11.014;2022-07-10T02:46:44;0.30;;;0.20;;
62863;SDS011;48954;59.950;11.014;2022-07-10T02:49:10;0.60;;;0.30;;
62863;SDS011;48954;59.950;11.014;2022-07-10T02:51:35;0.40;;;0.20;;
62863;SDS011;48954;59.950;11.014;2022-07-10T02:54:01;0.30;;;0.20;;
62863;SDS011;48954;59.950;11.014;2022-07-10T02:56:27;0.30;;;0.30;;
62863;SDS011;48954;59.950;11.014;2022-07-10T02:58:53;1.50;;;0.30;;
62863;SDS011;48954;59.950;11.014;2022-07-10T03:01:18;0.30;;;0.20;;
62863;SDS011;48954;59.950;11.014;2022-07-10T03:03:44;0.30;;;0.10;;
62863;SDS011;48954;59.950;11.014;2022-07-10T03:06:10;0.80;;;0.30;;
62863;SDS011;48954;59.950;11.014;2022-07-10T03:08:35;0.80;;;0.30;;
62863;SDS011;48954;59.950;11.014;2022-07-10T03:11:01;0.50;;;0.20;;
62863;SDS011;48954;59.950;11.014;2022-07-10T03:13:26;0.60;;;0.20;;
62863;SDS011;48954;59.950;11.014;2022-07-10T03:15:55;0.40;;;0.20;;
62863;SDS011;48954;59.950;11.014;2022-07-10T03:18:21;2.10;;;0.40;;
62863;SDS011;48954;59.950;11.014;2022-07-10T03:20:46;0.20;;;0.20;;
62863;SDS011;48954;59.950;11.014;2022-07-10T03:23:12;1.40;;;0.30;;
62863;SDS011;48954;59.950;11.014;2022-07-10T03:25:38;1.40;;;0.30;;
62863;SDS011;48954;59.950;11.014;2022-07-10T03:28:03;0.30;;;0.20;;
62863;SDS011;48954;59.950;11.014;2022-07-10T03:30:29;0.30;;;0.30;;
62863;SDS011;48954;59.950;11.014;2022-07-10T03:32:54;0.40;;;0.20;;
62863;SDS011;48954;59.950;11.014;2022-07-10T03:35:22;0.50;;;0.30;;
62863;SDS011;48954;59.950;11.014;2022-07-10T03:37:48;0.30;;;0.20;;
62863;SDS011;48954;59.950;11.014;2022-07-10T03:40:13;0.10;;;0.10;;
62863;SDS011;48954;59.950;11.014;2022-07-10T03:42:39;0.10;;;0.10;;
62863;SDS011;48954;59.950;11.014;2022-07-10T03:45:05;0.10;;;0.10;;
62863;SDS011;48954;59.950;11.014;2022-07-10T03:47:31;0.80;;;0.20;;
62863;SDS011;48954;59.950;11.014;2022-07-10T03:49:56;0.30;;;0.20;;
62863;SDS011;48954;59.950;11.014;2022-07-10T03:52:22;0.20;;;0.10;;
62863;SDS011;48954;59.950;11.014;2022-07-10T03:54:47;0.40;;;0.20;;
62863;SDS011;48954;59.950;11.014;2022-07-10T03:57:13;0.80;;;0.30;;
62863;SDS011;48954;59.950;11.014;2022-07-10T03:59:39;0.50;;;0.20;;
62863;SDS011;48954;59.950;11.014;2022-07-10T04:02:04;0.40;;;0.30;;
62863;SDS011;48954;59.950;11.014;2022-07-10T04:04:30;0.40;;;0.20;;
62863;SDS011;48954;59.950;11.014;2022-07-10T04:06:55;0.40;;;0.20;;
62863;SDS011;48954;59.950;11.014;2022-07-10T04:09:21;0.10;;;0.10;;
62863;SDS011;48954;59.950;11.014;2022-07-10T04:11:47;1.20;;;0.20;;
62863;SDS011;48954;59.950;11.014;2022-07-10T04:14:13;0.10;;;0.10;;
62863;SDS011;48954;59.950;11.014;2022-07-10T04:16:38;0.20;;;0.10;;
62863;SDS011;48954;59.950;11.014;2022-07-10T04:19:04;1.40;;;0.20;;
62863;SDS011;48954;59.950;11.014;2022-07-10T04:21:29;0.40;;;0.20;;
62863;SDS011;48954;59.950;11.014;2022-07-10T04:23:55;0.50;;;0.20;;
62863;SDS011;48954;59.950;11.014;2022-07-10T04:26:21;0.30;;;0.20;;
62863;SDS011;48954;59.950;11.014;2022-07-10T04:28:46;0.20;;;0.20;;
62863;SDS011;48954;59.950;11.014;2022-07-10T04:31:12;0.10;;;0.10;;
62863;SDS011;48954;59.950;11.014;2022-07-10T04:33:37;1.40;;;0.20;;
62863;SDS011;48954;59.950;11.014;2022-07-10T04:36:03;0.50;;;0.30;;
62863;SDS011;48954;59.950;11.014;2022-07-10T04:38:29;0.60;;;0.30;;
62863;SDS011;48954;59.950;11.014;2022-07-10T04:40:54;10.30;;;4.90;;
62863;SDS011;48954;59.950;11.014;2022-07-10T04:43:20;10.20;;;5.40;;
62863;SDS011;48954;59.950;11.014;2022-07-10T04:45:46;12.40;;;6.90;;
62863;SDS011;48954;59.950;11.014;2022-07-10T04:48:11;4.30;;;2.20;;
62863;SDS011;48954;59.950;11.014;2022-07-10T04:50:37;2.60;;;1.10;;
62863;SDS011;48954;59.950;11.014;2022-07-10T04:53:03;2.60;;;1.30;;
62863;SDS011;48954;59.950;11.014;2022-07-10T04:55:28;1.10;;;0.40;;
62863;SDS011;48954;59.950;11.014;2022-07-10T04:57:54;0.50;;;0.30;;
62863;SDS011;48954;59.950;11.014;2022-07-10T05:00:20;0.80;;;0.50;;
62863;SDS011;48954;59.950;11.014;2022-07-10T05:02:45;0.90;;;0.30;;
62863;SDS011;48954;59.950;11.014;2022-07-10T05:05:11;0.40;;;0.30;;
62863;SDS011;48954;59.950;11.014;2022-07-10T05:07:37;0.70;;;0.30;;
62863;SDS011;48954;59.950;11.014;2022-07-10T05:10:03;0.30;;;0.20;;
62863;SDS011;48954;59.950;11.014;2022-07-10T05:12:29;0.20;;;0.10;;
62863;SDS011;48954;59.950;11.014;2022-07-10T05:14:54;0.50;;;0.30;;
62863;SDS011;48954;59.950;11.014;2022-07-10T05:17:20;0.30;;;0.20;;
62863;SDS011;48954;59.950;11.014;2022-07-10T05:19:45;0.50;;;0.40;;
62863;SDS011;48954;59.950;11.014;2022-07-10T05:22:11;0.70;;;0.30;;
62863;SDS011;48954;59.950;11.014;2022-07-10T05:24:37;1.00;;;0.50;;
62863;SDS011;48954;59.950;11.014;2022-07-10T05:27:02;0.40;;;0.30;;
62863;SDS011;48954;59.950;11.014;2022-07-10T05:29:28;1.30;;;0.20;;
62863;SDS011;48954;59.950;11.014;2022-07-10T05:31:54;0.30;;;0.20;;
62863;SDS011;48954;59.950;11.014;2022-07-10T05:34:19;0.20;;;0.10;;
62863;SDS011;48954;59.950;11.014;2022-07-10T05:36:45;0.30;;;0.20;;
62863;SDS011;48954;59.950;11.014;2022-07-10T05:39:10;0.30;;;0.20;;
62863;SDS011;48954;59.950;11.014;2022-07-10T05:41:36;0.70;;;0.30;;
62863;SDS011;48954;59.950;11.014;2022-07-10T05:44:02;0.20;;;0.20;;
62863;SDS011;48954;59.950;11.014;2022-07-10T05:46:27;0.90;;;0.10;;
62863;SDS011;48954;59.950;11.014;2022-07-10T05:48:53;0.20;;;0.20;;
62863;SDS011;48954;59.950;11.014;2022-07-10T05:51:19;0.30;;;0.30;;
62863;SDS011;48954;59.950;11.014;2022-07-10T05:53:45;0.50;;;0.40;;
62863;SDS011;48954;59.950;11.014;2022-07-10T05:56:10;1.00;;;0.30;;
62863;SDS011;48954;59.950;11.014;2022-07-10T05:58:36;1.10;;;0.30;;
62863;SDS011;48954;59.950;11.014;2022-07-10T06:01:02;0.30;;;0.30;;
62863;SDS011;48954;59.950;11.014;2022-07-10T06:03:28;0.30;;;0.20;;
62863;SDS011;48954;59.950;11.014;2022-07-10T06:05:53;0.20;;;0.20;;
62863;SDS011;48954;59.950;11.014;2022-07-10T06:08:19;1.00;;;0.40;;
62863;SDS011;48954;59.950;11.014;2022-07-10T06:10:44;0.20;;;0.10;;
62863;SDS011;48954;59.950;11.014;2022-07-10T06:13:10;0.40;;;0.30;;
62863;SDS011;48954;59.950;11.014;2022-07-10T06:15:36;0.20;;;0.10;;
62863;SDS011;48954;59.950;11.014;2022-07-10T06:18:02;0.30;;;0.30;;
62863;SDS011;48954;59.950;11.014;2022-07-10T06:20:28;0.30;;;0.20;;
62863;SDS011;48954;59.950;11.014;2022-07-10T06:22:54;0.10;;;0.10;;
62863;SDS011;48954;59.950;11.014;2022-07-10T06:25:21;0.30;;;0.10;;
62863;SDS011;48954;59.950;11.014;2022-07-10T06:27:46;0.20;;;0.20;;
62863;SDS011;48954;59.950;11.014;2022-07-10T06:30:12;0.10;;;0.10;;
62863;SDS011;48954;59.950;11.014;2022-07-10T06:32:38;0.20;;;0.10;;
62863;SDS011;48954;59.950;11.014;2022-07-10T06:35:04;0.20;;;0.20;;
62863;SDS011;48954;59.950;11.014;2022-07-10T06:37:30;0.30;;;0.10;;
62863;SDS011;48954;59.950;11.014;2022-07-10T06:39:56;1.00;;;0.20;;
62863;SDS011;48954;59.950;11.014;2022-07-10T06:42:21;0.10;;;0.10;;
62863;SDS011;48954;59.950;11.014;2022-07-10T06:44:47;0.20;;;0.10;;
62863;SDS011;48954;59.950;11.014;2022-07-10T06:47:14;1.40;;;0.10;;
62863;SDS011;48954;59.950;11.014;2022-07-10T06:49:42;0.20;;;0.10;;
62863;SDS011;48954;59.950;11.014;2022-07-10T06:52:08;0.10;;;0.10;;
62863;SDS011;48954;59.950;11.014;2022-07-10T06:54:35;0.30;;;0.10;;
62863;SDS011;48954;59.950;11.014;2022-07-10T06:57:01;0.10;;;0.10;;
62863;SDS011;48954;59.950;11.014;2022-07-10T06:59:27;0.00;;;0.00;;
62863;SDS011;48954;59.950;11.014;2022-07-10T07:01:52;0.70;;;0.20;;
62863;SDS011;48954;59.950;11.014;2022-07-10T07:04:18;1.70;;;0.10;;
62863;SDS011;48954;59.950;11.014;2022-07-10T07:06:44;0.60;;;0.10;;
62863;SDS011;48954;59.950;11.014;2022-07-10T07:09:09;0.30;;;0.10;;
62863;SDS011;48954;59.950;11.014;2022-07-10T07:11:35;0.30;;;0.10;;
62863;SDS011;48954;59.950;11.014;2022-07-10T07:14:00;1.70;;;0.30;;
62863;SDS011;48954;59.950;11.014;2022-07-10T07:16:26;0.20;;;0.20;;
62863;SDS011;48954;59.950;11.014;2022-07-10T07:18:52;0.20;;;0.20;;
62863;SDS011;48954;59.950;11.014;2022-07-10T07:21:17;1.10;;;0.10;;
62863;SDS011;48954;59.950;11.014;2022-07-10T07:23:43;0.40;;;0.10;;
62863;SDS011;48954;59.950;11.014;2022-07-10T07:26:09;0.40;;;0.10;;
62863;SDS011;48954;59.950;11.014;2022-07-10T07:28:35;2.40;;;0.20;;
62863;SDS011;48954;59.950;11.014;2022-07-10T07:31:00;0.30;;;0.10;;
62863;SDS011;48954;59.950;11.014;2022-07-10T07:33:26;0.30;;;0.20;;
62863;SDS011;48954;59.950;11.014;2022-07-10T07:35:52;0.20;;;0.20;;
62863;SDS011;48954;59.950;11.014;2022-07-10T07:38:17;0.40;;;0.20;;
62863;SDS011;48954;59.950;11.014;2022-07-10T07:40:43;0.40;;;0.20;;
62863;SDS011;48954;59.950;11.014;2022-07-10T07:43:09;1.20;;;0.20;;
62863;SDS011;48954;59.950;11.014;2022-07-10T07:45:35;0.40;;;0.20;;
62863;SDS011;48954;59.950;11.014;2022-07-10T07:48:01;0.80;;;0.10;;
62863;SDS011;48954;59.950;11.014;2022-07-10T07:50:33;1.10;;;0.20;;
62863;SDS011;48954;59.950;11.014;2022-07-10T07:53:01;0.30;;;0.20;;
62863;SDS011;48954;59.950;11.014;2022-07-10T07:55:28;0.70;;;0.30;;
62863;SDS011;48954;59.950;11.014;2022-07-10T07:57:56;2.00;;;0.30;;
62863;SDS011;48954;59.950;11.014;2022-07-10T08:00:23;0.20;;;0.10;;
62863;SDS011;48954;59.950;11.014;2022-07-10T08:02:50;0.90;;;0.20;;
62863;SDS011;48954;59.950;11.014;2022-07-10T08:05:19;0.20;;;0.20;;
62863;SDS011;48954;59.950;11.014;2022-07-10T08:07:47;0.10;;;0.10;;
62863;SDS011;48954;59.950;11.014;2022-07-10T08:10:16;0.10;;;0.10;;
62863;SDS011;48954;59.950;11.014;2022-07-10T08:12:43;1.10;;;0.20;;
62863;SDS011;48954;59.950;11.014;2022-07-10T08:15:10;0.40;;;0.20;;
62863;SDS011;48954;59.950;11.014;2022-07-10T08:17:37;0.20;;;0.20;;
62863;SDS011;48954;59.950;11.014;2022-07-10T08:20:03;0.70;;;0.30;;
62863;SDS011;48954;59.950;11.014;2022-07-10T08:22:30;0.20;;;0.20;;
62863;SDS011;48954;59.950;11.014;2022-07-10T08:24:56;0.20;;;0.20;;
62863;SDS011;48954;59.950;11.014;2022-07-10T08:27:22;0.80;;;0.30;;
62863;SDS011;48954;59.950;11.014;2022-07-10T08:29:48;0.50;;;0.20;;
62863;SDS011;48954;59.950;11.014;2022-07-10T08:32:14;0.20;;;0.20;;
62863;SDS011;48954;59.950;11.014;2022-07-10T08:34:40;0.90;;;0.30;;
62863;SDS011;48954;59.950;11.014;2022-07-10T08:37:05;1.20;;;0.30;;
62863;SDS011;48954;59.950;11.014;2022-07-10T08:39:31;1.00;;;0.20;;
62863;SDS011;48954;59.950;11.014;2022-07-10T08:41:57;0.30;;;0.30;;
62863;SDS011;48954;59.950;11.014;2022-07-10T08:44:23;0.30;;;0.20;;
62863;SDS011;48954;59.950;11.014;2022-07-10T08:46:49;0.90;;;0.20;;
62863;SDS011;48954;59.950;11.014;2022-07-10T08:49:15;0.90;;;0.20;;
62863;SDS011;48954;59.950;11.014;2022-07-10T08:51:47;2.80;;;0.40;;
62863;SDS011;48954;59.950;11.014;2022-07-10T08:54:17;0.20;;;0.20;;
62863;SDS011;48954;59.950;11.014;2022-07-10T08:56:44;2.00;;;0.40;;
62863;SDS011;48954;59.950;11.014;2022-07-10T08:59:09;0.80;;;0.30;;
62863;SDS011;48954;59.950;11.014;2022-07-10T09:01:39;0.30;;;0.30;;
62863;SDS011;48954;59.950;11.014;2022-07-10T09:04:05;0.50;;;0.20;;
62863;SDS011;48954;59.950;11.014;2022-07-10T09:06:30;0.30;;;0.30;;
62863;SDS011;48954;59.950;11.014;2022-07-10T09:09:03;3.20;;;0.50;;
62863;SDS011;48954;59.950;11.014;2022-07-10T09:11:30;1.30;;;0.30;;
62863;SDS011;48954;59.950;11.014;2022-07-10T09:14:01;0.30;;;0.20;;
62863;SDS011;48954;59.950;11.014;2022-07-10T09:16:30;0.20;;;0.20;;
62863;SDS011;48954;59.950;11.014;2022-07-10T09:19:14;0.40;;;0.30;;
62863;SDS011;48954;59.950;11.014;2022-07-10T09:21:39;0.90;;;0.40;;
62863;SDS011;48954;59.950;11.014;2022-07-10T09:24:07;0.30;;;0.30;;
62863;SDS011;48954;59.950;11.014;2022-07-10T09:26:33;0.60;;;0.30;;
62863;SDS011;48954;59.950;11.014;2022-07-10T09:29:05;0.60;;;0.40;;
62863;SDS011;48954;59.950;11.014;2022-07-10T09:31:49;0.30;;;0.30;;
62863;SDS011;48954;59.950;11.014;2022-07-10T09:34:16;0.50;;;0.30;;
62863;SDS011;48954;59.950;11.014;2022-07-10T09:36:42;0.30;;;0.30;;
62863;SDS011;48954;59.950;11.014;2022-07-10T09:39:08;0.90;;;0.30;;
62863;SDS011;48954;59.950;11.014;2022-07-10T09:41:34;0.30;;;0.20;;
62863;SDS011;48954;59.950;11.014;2022-07-10T09:44:01;0.80;;;0.30;;
62863;SDS011;48954;59.950;11.014;2022-07-10T09:46:31;0.50;;;0.40;;
62863;SDS011;48954;59.950;11.014;2022-07-10T09:49:11;0.50;;;0.30;;
62863;SDS011;48954;59.950;11.014;2022-07-10T09:51:38;0.30;;;0.30;;
62863;SDS011;48954;59.950;11.014;2022-07-10T09:54:11;2.40;;;0.50;;
62863;SDS011;48954;59.950;11.014;2022-07-10T09:56:47;2.60;;;0.30;;
62863;SDS011;48954;59.950;11.014;2022-07-10T09:59:17;1.00;;;0.50;;
62863;SDS011;48954;59.950;11.014;2022-07-10T10:01:47;1.90;;;0.30;;
62863;SDS011;48954;59.950;11.014;2022-07-10T10:04:21;0.40;;;0.30;;
62863;SDS011;48954;59.950;11.014;2022-07-10T10:06:51;0.40;;;0.40;;
62863;SDS011;48954;59.950;11.014;2022-07-10T10:09:23;0.70;;;0.50;;
62863;SDS011;48954;59.950;11.014;2022-07-10T10:11:54;0.30;;;0.30;;
62863;SDS011;48954;59.950;11.014;2022-07-10T10:14:22;1.00;;;0.40;;
62863;SDS011;48954;59.950;11.014;2022-07-10T10:16:48;0.80;;;0.40;;
62863;SDS011;48954;59.950;11.014;2022-07-10T10:19:15;0.50;;;0.40;;
62863;SDS011;48954;59.950;11.014;2022-07-10T10:21:43;1.90;;;0.70;;
62863;SDS011;48954;59.950;11.014;2022-07-10T10:24:09;0.80;;;0.50;;
62863;SDS011;48954;59.950;11.014;2022-07-10T10:26:37;0.70;;;0.50;;
62863;SDS011;48954;59.950;11.014;2022-07-10T10:29:03;1.20;;;0.50;;
62863;SDS011;48954;59.950;11.014;2022-07-10T10:31:30;1.10;;;0.40;;
62863;SDS011;48954;59.950;11.014;2022-07-10T10:33:57;1.20;;;0.40;;
62863;SDS011;48954;59.950;11.014;2022-07-10T10:39:02;0.80;;;0.50;;
62863;SDS011;48954;59.950;11.014;2022-07-10T10:41:30;2.00;;;0.50;;
62863;SDS011;48954;59.950;11.014;2022-07-10T10:46:34;0.60;;;0.40;;
62863;SDS011;48954;59.950;11.014;2022-07-10T10:49:04;1.30;;;0.50;;
62863;SDS011;48954;59.950;11.014;2022-07-10T10:54:28;1.20;;;0.40;;
62863;SDS011;48954;59.950;11.014;2022-07-10T10:57:38;2.30;;;0.50;;
62863;SDS011;48954;59.950;11.014;2022-07-10T10:59:50;0.80;;;0.60;;
62863;SDS011;48954;59.950;11.014;2022-07-10T11:04:45;0.90;;;0.40;;
62863;SDS011;48954;59.950;11.014;2022-07-10T11:07:11;0.90;;;0.50;;
62863;SDS011;48954;59.950;11.014;2022-07-10T11:09:37;0.70;;;0.50;;
62863;SDS011;48954;59.950;11.014;2022-07-10T11:12:05;2.20;;;0.60;;
62863;SDS011;48954;59.950;11.014;2022-07-10T11:14:38;2.00;;;0.50;;
62863;SDS011;48954;59.950;11.014;2022-07-10T11:17:05;1.30;;;0.50;;
62863;SDS011;48954;59.950;11.014;2022-07-10T11:19:32;1.00;;;0.50;;
62863;SDS011;48954;59.950;11.014;2022-07-10T11:28:24;0.60;;;0.40;;
62863;SDS011;48954;59.950;11.014;2022-07-10T11:30:28;0.70;;;0.50;;
62863;SDS011;48954;59.950;11.014;2022-07-10T11:32:54;1.10;;;0.40;;
62863;SDS011;48954;59.950;11.014;2022-07-10T11:35:20;0.50;;;0.40;;
62863;SDS011;48954;59.950;11.014;2022-07-10T11:37:52;0.60;;;0.50;;
62863;SDS011;48954;59.950;11.014;2022-07-10T11:40:18;0.50;;;0.40;;
62863;SDS011;48954;59.950;11.014;2022-07-10T11:42:54;1.20;;;0.50;;
62863;SDS011;48954;59.950;11.014;2022-07-10T11:47:53;1.00;;;0.50;;
62863;SDS011;48954;59.950;11.014;2022-07-10T11:50:19;0.60;;;0.60;;
62863;SDS011;48954;59.950;11.014;2022-07-10T11:52:45;0.70;;;0.60;;
62863;SDS011;48954;59.950;11.014;2022-07-10T11:55:15;0.90;;;0.50;;
62863;SDS011;48954;59.950;11.014;2022-07-10T11:57:42;1.00;;;0.50;;
62863;SDS011;48954;59.950;11.014;2022-07-10T12:00:19;0.70;;;0.40;;
62863;SDS011;48954;59.950;11.014;2022-07-10T12:02:46;1.20;;;0.50;;
62863;SDS011;48954;59.950;11.014;2022-07-10T12:08:01;0.60;;;0.50;;
62863;SDS011;48954;59.950;11.014;2022-07-10T12:10:31;1.20;;;0.50;;
62863;SDS011;48954;59.950;11.014;2022-07-10T12:13:05;1.30;;;0.50;;
62863;SDS011;48954;59.950;11.014;2022-07-10T12:15:33;0.50;;;0.40;;
62863;SDS011;48954;59.950;11.014;2022-07-10T12:18:06;1.40;;;0.50;;
62863;SDS011;48954;59.950;11.014;2022-07-10T12:20:35;1.40;;;0.40;;
62863;SDS011;48954;59.950;11.014;2022-07-10T12:23:03;1.20;;;0.50;;
62863;SDS011;48954;59.950;11.014;2022-07-10T12:25:29;0.60;;;0.50;;
62863;SDS011;48954;59.950;11.014;2022-07-10T12:27:56;1.30;;;0.50;;
62863;SDS011;48954;59.950;11.014;2022-07-10T12:30:22;0.70;;;0.60;;
62863;SDS011;48954;59.950;11.014;2022-07-10T12:32:48;0.90;;;0.60;;
62863;SDS011;48954;59.950;11.014;2022-07-10T12:35:14;1.60;;;0.50;;
62863;SDS011;48954;59.950;11.014;2022-07-10T12:37:48;1.00;;;0.40;;
62863;SDS011;48954;59.950;11.014;2022-07-10T12:40:30;1.60;;;0.60;;
62863;SDS011;48954;59.950;11.014;2022-07-10T12:43:03;0.90;;;0.50;;
62863;SDS011;48954;59.950;11.014;2022-07-10T12:45:29;0.70;;;0.50;;
62863;SDS011;48954;59.950;11.014;2022-07-10T12:47:55;1.40;;;0.60;;
62863;SDS011;48954;59.950;11.014;2022-07-10T12:50:20;0.90;;;0.50;;
62863;SDS011;48954;59.950;11.014;2022-07-10T12:52:48;1.30;;;0.70;;
62863;SDS011;48954;59.950;11.014;2022-07-10T13:00:20;0.90;;;0.60;;
62863;SDS011;48954;59.950;11.014;2022-07-10T13:02:48;1.40;;;0.50;;
62863;SDS011;48954;59.950;11.014;2022-07-10T13:05:24;0.60;;;0.50;;
62863;SDS011;48954;59.950;11.014;2022-07-10T13:08:03;0.40;;;0.40;;
62863;SDS011;48954;59.950;11.014;2022-07-10T13:10:30;0.80;;;0.60;;
62863;SDS011;48954;59.950;11.014;2022-07-10T13:12:56;0.80;;;0.60;;
62863;SDS011;48954;59.950;11.014;2022-07-10T13:15:22;1.10;;;0.50;;
62863;SDS011;48954;59.950;11.014;2022-07-10T13:17:48;2.10;;;0.60;;
62863;SDS011;48954;59.950;11.014;2022-07-10T13:20:13;3.40;;;0.70;;
62863;SDS011;48954;59.950;11.014;2022-07-10T13:22:39;1.10;;;0.70;;
62863;SDS011;48954;59.950;11.014;2022-07-10T13:25:08;2.70;;;0.80;;
62863;SDS011;48954;59.950;11.014;2022-07-10T13:27:34;1.60;;;0.40;;
62863;SDS011;48954;59.950;11.014;2022-07-10T13:30:00;0.60;;;0.50;;
62863;SDS011;48954;59.950;11.014;2022-07-10T13:32:26;0.90;;;0.60;;
62863;SDS011;48954;59.950;11.014;2022-07-10T13:34:51;1.00;;;0.50;;
62863;SDS011;48954;59.950;11.014;2022-07-10T13:37:17;0.60;;;0.40;;
62863;SDS011;48954;59.950;11.014;2022-07-10T13:39:42;1.70;;;0.60;;
62863;SDS011;48954;59.950;11.014;2022-07-10T13:42:09;1.10;;;0.60;;
62863;SDS011;48954;59.950;11.014;2022-07-10T13:44:34;1.10;;;0.60;;
62863;SDS011;48954;59.950;11.014;2022-07-10T13:47:01;1.40;;;0.50;;
62863;SDS011;48954;59.950;11.014;2022-07-10T13:49:27;0.80;;;0.50;;
62863;SDS011;48954;59.950;11.014;2022-07-10T13:51:52;0.90;;;0.50;;
62863;SDS011;48954;59.950;11.014;2022-07-10T13:54:18;2.10;;;0.60;;
62863;SDS011;48954;59.950;11.014;2022-07-10T13:56:44;2.30;;;0.80;;
62863;SDS011;48954;59.950;11.014;2022-07-10T13:59:10;1.40;;;0.90;;
62863;SDS011;48954;59.950;11.014;2022-07-10T14:01:36;0.90;;;0.60;;
62863;SDS011;48954;59.950;11.014;2022-07-10T14:04:01;1.10;;;0.60;;
62863;SDS011;48954;59.950;11.014;2022-07-10T14:06:27;1.10;;;0.60;;
62863;SDS011;48954;59.950;11.014;2022-07-10T14:08:53;2.30;;;0.60;;
62863;SDS011;48954;59.950;11.014;2022-07-10T14:11:18;1.70;;;0.80;;
62863;SDS011;48954;59.950;11.014;2022-07-10T14:13:44;3.80;;;1.80;;
62863;SDS011;48954;59.950;11.014;2022-07-10T14:16:10;1.30;;;0.70;;
62863;SDS011;48954;59.950;11.014;2022-07-10T14:18:36;1.70;;;1.00;;
62863;SDS011;48954;59.950;11.014;2022-07-10T14:21:02;0.80;;;0.70;;
62863;SDS011;48954;59.950;11.014;2022-07-10T14:23:30;4.80;;;0.60;;
62863;SDS011;48954;59.950;11.014;2022-07-10T14:25:56;1.60;;;0.70;;
62863;SDS011;48954;59.950;11.014;2022-07-10T14:28:24;2.20;;;0.90;;
62863;SDS011;48954;59.950;11.014;2022-07-10T14:30:50;2.10;;;1.10;;
62863;SDS011;48954;59.950;11.014;2022-07-10T14:33:16;1.80;;;0.90;;
62863;SDS011;48954;59.950;11.014;2022-07-10T14:35:41;1.00;;;0.70;;
62863;SDS011;48954;59.950;11.014;2022-07-10T14:38:07;1.10;;;0.80;;
62863;SDS011;48954;59.950;11.014;2022-07-10T14:40:33;1.00;;;0.60;;
62863;SDS011;48954;59.950;11.014;2022-07-10T14:42:59;1.20;;;0.60;;
62863;SDS011;48954;59.950;11.014;2022-07-10T14:45:25;0.90;;;0.60;;
62863;SDS011;48954;59.950;11.014;2022-07-10T14:47:51;1.90;;;0.80;;
62863;SDS011;48954;59.950;11.014;2022-07-10T14:50:17;1.30;;;0.90;;
62863;SDS011;48954;59.950;11.014;2022-07-10T14:52:43;0.90;;;0.70;;
62863;SDS011;48954;59.950;11.014;2022-07-10T14:55:09;1.00;;;0.60;;
62863;SDS011;48954;59.950;11.014;2022-07-10T14:57:35;0.90;;;0.60;;